Time;durP1;ratioP1;P1;durP2;ratioP2;P2;SDS_P1;SDS_P2;PMS_P1;PMS_P2;Temp;Humidity;BMP_temperature;BMP_pressure;BME280_temperature;BME280_humidity;BME280_pressure;Samples;Min_cycle;Max_cycle;Signal;HPM_P1;HPM_P2
2022/07/23 00:01:59;;;;;;;7.72;4.45;;;15.30;99.90;;;;;;5012832;28;20064;-51
2022/07/23 00:04:25;;;;;;;7.03;4.20;;;15.20;99.90;;;;;;5030393;28;20052;-52
2022/07/23 00:06:51;;;;;;;5.53;3.90;;;15.10;99.90;;;;;;5030800;28;20037;-49
2022/07/23 00:09:16;;;;;;;5.32;4.15;;;15.10;99.90;;;;;;5030766;28;20080;-46
2022/07/23 00:11:42;;;;;;;8.45;4.15;;;15.10;99.90;;;;;;5030915;28;20041;-47
2022/07/23 00:14:08;;;;;;;9.43;4.30;;;15.20;99.90;;;;;;5030347;28;20037;-48
2022/07/23 00:16:33;;;;;;;7.53;4.32;;;15.10;99.90;;;;;;5030755;28;20041;-50
2022/07/23 00:19:01;;;;;;;7.35;4.45;;;15.00;99.90;;;;;;5030324;28;20111;-51
2022/07/23 00:21:27;;;;;;;7.82;4.20;;;15.20;99.90;;;;;;5030541;28;20045;-52
2022/07/23 00:23:52;;;;;;;7.50;4.45;;;15.10;99.90;;;;;;5030341;28;20049;-49
2022/07/23 00:26:18;;;;;;;6.95;4.25;;;15.00;99.90;;;;;;5029712;28;20030;-50
2022/07/23 00:28:43;;;;;;;5.32;3.80;;;15.00;99.90;;;;;;5030447;28;20037;-49
2022/07/23 00:31:09;;;;;;;5.55;4.30;;;14.80;99.90;;;;;;5030168;28;20044;-49
2022/07/23 00:33:35;;;;;;;7.63;4.55;;;14.80;99.90;;;;;;5029957;28;20037;-46
2022/07/23 00:36:00;;;;;;;7.60;4.78;;;14.80;99.90;;;;;;5030309;28;20040;-53
2022/07/23 00:38:26;;;;;;;7.15;4.15;;;14.70;99.90;;;;;;5030327;28;20041;-49
2022/07/23 00:40:52;;;;;;;6.05;4.68;;;14.70;99.90;;;;;;5029895;28;20472;-50
2022/07/23 00:43:21;;;;;;;6.70;4.32;;;14.70;99.90;;;;;;5030020;28;20133;-51
2022/07/23 00:45:47;;;;;;;8.35;4.97;;;14.70;99.90;;;;;;5029728;28;20084;-50
2022/07/23 00:48:13;;;;;;;5.80;4.57;;;14.50;99.90;;;;;;5029917;28;20045;-53
2022/07/23 00:50:39;;;;;;;5.18;4.30;;;14.50;99.90;;;;;;5029765;28;20431;-50
2022/07/23 00:53:05;;;;;;;7.15;4.60;;;14.50;99.90;;;;;;5028888;28;20068;-49
2022/07/23 00:55:32;;;;;;;5.38;4.60;;;14.50;99.90;;;;;;5029496;28;20049;-48
2022/07/23 00:57:58;;;;;;;6.28;4.35;;;14.40;99.90;;;;;;5029533;28;20049;-47
2022/07/23 01:00:24;;;;;;;7.82;4.72;;;14.40;99.90;;;;;;5029915;28;20045;-47
2022/07/23 01:02:50;;;;;;;8.25;4.88;;;14.30;99.90;;;;;;5029423;28;20104;-51
2022/07/23 01:05:17;;;;;;;5.45;4.40;;;14.30;99.90;;;;;;5029956;28;20431;-54
2022/07/23 01:07:43;;;;;;;9.07;4.88;;;14.20;99.90;;;;;;5012014;28;20037;-50
2022/07/23 01:12:53;;;;;;;7.75;4.38;;;14.30;99.90;;;;;;5033911;28;20547;-53
2022/07/23 01:15:19;;;;;;;7.25;5.03;;;14.20;99.90;;;;;;5033695;28;20034;-52
2022/07/23 01:17:44;;;;;;;8.23;4.70;;;14.30;99.90;;;;;;5033762;28;20077;-49
2022/07/23 01:20:10;;;;;;;8.57;4.30;;;14.30;99.90;;;;;;5033621;28;20072;-51
2022/07/23 01:22:36;;;;;;;8.18;4.97;;;14.30;99.90;;;;;;5033719;28;20042;-51
2022/07/23 01:25:01;;;;;;;5.90;4.72;;;14.30;99.90;;;;;;5033124;28;20580;-50
2022/07/23 01:27:27;;;;;;;6.30;4.70;;;14.30;99.90;;;;;;5033718;28;20033;-50
2022/07/23 01:29:54;;;;;;;6.28;4.50;;;14.30;99.90;;;;;;5033283;28;20036;-53
2022/07/23 01:32:20;;;;;;;7.13;4.22;;;14.30;99.90;;;;;;5033247;28;20025;-48
2022/07/23 01:34:46;;;;;;;5.97;4.40;;;14.30;99.90;;;;;;5033405;28;20094;-52
2022/07/23 01:37:11;;;;;;;6.30;4.72;;;14.30;99.90;;;;;;5033440;28;20115;-52
2022/07/23 01:39:37;;;;;;;9.02;4.70;;;14.30;99.90;;;;;;5033323;28;20603;-52
2022/07/23 01:42:03;;;;;;;6.00;4.43;;;14.20;99.90;;;;;;5033363;28;20037;-52
2022/07/23 01:44:28;;;;;;;7.07;4.72;;;14.30;99.90;;;;;;5032912;28;20041;-52
2022/07/23 01:46:56;;;;;;;11.27;4.78;;;14.20;99.90;;;;;;5033050;28;20563;-55
2022/07/23 01:49:21;;;;;;;7.30;5.15;;;14.20;99.90;;;;;;5033300;28;20412;-51
2022/07/23 01:51:59;;;;;;;6.75;4.95;;;14.30;99.90;;;;;;5033059;28;20034;-48
2022/07/23 01:54:29;;;;;;;6.53;4.72;;;14.40;99.90;;;;;;5032977;28;20171;-51
2022/07/23 01:56:55;;;;;;;5.88;4.25;;;14.30;99.90;;;;;;5032926;28;20053;-54
2022/07/23 01:59:22;;;;;;;8.98;4.78;;;14.30;99.90;;;;;;5032735;28;20049;-50
2022/07/23 02:01:50;;;;;;;6.35;4.18;;;14.40;99.90;;;;;;5033039;28;20041;-51
2022/07/23 02:04:20;;;;;;;5.88;4.20;;;14.40;99.90;;;;;;5032796;28;20551;-49
2022/07/23 02:06:45;;;;;;;5.53;3.90;;;14.40;99.90;;;;;;5032971;28;20079;-49
2022/07/23 02:09:11;;;;;;;6.22;4.03;;;14.50;99.90;;;;;;5032623;28;20859;-50
2022/07/23 02:11:37;;;;;;;6.30;4.07;;;14.40;99.90;;;;;;5032438;28;20040;-51
2022/07/23 02:14:02;;;;;;;6.05;3.63;;;14.40;99.90;;;;;;5032501;28;20129;-55
2022/07/23 02:16:29;;;;;;;6.30;3.55;;;14.40;99.90;;;;;;5032958;28;20143;-51
2022/07/23 02:18:55;;;;;;;5.18;3.20;;;14.40;99.90;;;;;;5032743;28;20037;-48
2022/07/23 02:21:21;;;;;;;4.82;3.38;;;14.20;99.90;;;;;;5031909;28;20039;-49
2022/07/23 02:23:47;;;;;;;5.65;3.63;;;14.30;99.90;;;;;;5032968;28;20124;-48
2022/07/23 02:26:12;;;;;;;6.50;3.40;;;14.30;99.90;;;;;;5031835;28;20120;-51
2022/07/23 02:28:38;;;;;;;5.25;3.58;;;14.20;99.90;;;;;;5032439;28;20083;-48
2022/07/23 02:31:04;;;;;;;5.28;3.75;;;14.20;99.90;;;;;;5032329;28;20059;-50
2022/07/23 02:33:29;;;;;;;5.45;3.95;;;14.10;99.90;;;;;;5032461;28;20135;-52
2022/07/23 02:35:55;;;;;;;5.35;4.05;;;14.10;99.90;;;;;;5029624;28;20519;-48
2022/07/23 02:38:21;;;;;;;4.93;3.70;;;14.10;99.90;;;;;;5032274;28;20041;-50
2022/07/23 02:40:46;;;;;;;5.60;3.80;;;14.10;99.90;;;;;;5030843;28;20041;-50
2022/07/23 02:43:12;;;;;;;4.80;3.50;;;14.10;99.90;;;;;;5032084;28;20440;-53
2022/07/23 02:45:38;;;;;;;5.13;3.65;;;14.00;99.90;;;;;;5032186;28;20511;-48
2022/07/23 02:48:04;;;;;;;6.57;4.00;;;13.90;99.90;;;;;;5032122;28;20037;-49
2022/07/23 02:50:29;;;;;;;7.95;4.30;;;13.90;99.90;;;;;;5030751;28;20034;-50
2022/07/23 02:52:55;;;;;;;8.27;5.05;;;13.80;99.90;;;;;;5031889;28;20064;-49
2022/07/23 02:55:21;;;;;;;5.72;4.07;;;13.80;99.90;;;;;;5031505;28;20037;-52
2022/07/23 02:57:46;;;;;;;6.28;5.00;;;13.80;99.90;;;;;;5031730;28;20029;-48
2022/07/23 03:00:13;;;;;;;6.57;4.40;;;13.80;99.90;;;;;;5032206;28;20052;-48
2022/07/23 03:02:39;;;;;;;7.07;4.30;;;13.70;99.90;;;;;;5031647;28;20065;-50
2022/07/23 03:05:05;;;;;;;7.45;4.95;;;13.60;99.90;;;;;;5031801;28;20516;-50
2022/07/23 03:07:30;;;;;;;6.78;4.88;;;13.60;99.90;;;;;;5032098;28;20052;-51
2022/07/23 03:09:56;;;;;;;6.97;4.15;;;13.50;99.90;;;;;;5031678;28;20132;-50
2022/07/23 03:12:22;;;;;;;6.32;4.47;;;13.50;99.90;;;;;;5031777;28;20082;-49
2022/07/23 03:14:47;;;;;;;5.95;4.80;;;13.40;99.90;;;;;;5031703;28;20037;-52
2022/07/23 03:17:13;;;;;;;6.07;4.18;;;13.50;99.90;;;;;;5031563;28;20083;-49
2022/07/23 03:19:39;;;;;;;7.75;4.55;;;13.50;99.90;;;;;;5031630;28;20094;-50
2022/07/23 03:22:05;;;;;;;6.70;4.85;;;13.40;99.90;;;;;;5031351;28;20045;-51
2022/07/23 03:27:15;;;;;;;;;;;13.50;99.90;;;;;;5031701;28;20126;-49
2022/07/23 03:29:40;;;;;;;3.42;1.88;;;13.30;99.90;;;;;;5031387;28;19964;-47
2022/07/23 03:32:06;;;;;;;1.90;1.20;;;13.20;99.90;;;;;;5030967;28;20120;-48
2022/07/23 03:34:32;;;;;;;2.45;1.40;;;13.20;99.90;;;;;;5030370;28;20041;-53
2022/07/23 03:36:58;;;;;;;2.03;1.30;;;13.10;99.90;;;;;;5031050;28;20037;-51
2022/07/23 03:39:23;;;;;;;2.30;1.25;;;13.20;99.90;;;;;;5030955;28;20112;-49
2022/07/23 03:41:49;;;;;;;1.73;1.23;;;13.10;99.90;;;;;;5031263;28;20045;-52
2022/07/23 03:44:15;;;;;;;9.50;1.90;;;13.10;99.90;;;;;;5030700;28;20041;-49
2022/07/23 03:46:40;;;;;;;21.63;2.53;;;13.10;99.90;;;;;;5030972;28;20033;-50
2022/07/23 03:49:06;;;;;;;4.97;2.20;;;13.10;99.90;;;;;;5030842;28;20396;-52
2022/07/23 03:51:32;;;;;;;3.38;2.20;;;13.00;99.90;;;;;;5030719;28;20064;-48
2022/07/23 03:53:58;;;;;;;4.53;2.40;;;12.90;99.90;;;;;;5030601;28;20114;-52
2022/07/23 03:56:23;;;;;;;4.30;2.97;;;12.90;99.90;;;;;;5012771;28;20041;-52
2022/07/23 03:58:49;;;;;;;4.93;2.70;;;12.90;99.90;;;;;;5029400;28;20076;-53
2022/07/23 04:01:15;;;;;;;4.43;2.58;;;12.90;99.90;;;;;;5030480;28;20111;-53
2022/07/23 04:03:41;;;;;;;5.35;2.60;;;13.00;99.90;;;;;;5029314;28;20120;-48
2022/07/23 04:06:07;;;;;;;3.38;2.15;;;13.00;99.90;;;;;;5029358;28;20030;-50
2022/07/23 04:08:33;;;;;;;3.40;2.20;;;13.00;99.90;;;;;;5030499;28;20513;-48
2022/07/23 04:10:58;;;;;;;3.10;1.70;;;13.00;99.90;;;;;;5030226;28;20071;-51
2022/07/23 04:13:24;;;;;;;4.75;1.75;;;13.00;99.90;;;;;;5030614;28;20072;-49
2022/07/23 04:15:50;;;;;;;3.58;2.08;;;12.90;99.90;;;;;;5030572;28;20045;-48
2022/07/23 04:18:17;;;;;;;3.30;2.13;;;12.90;99.90;;;;;;5030363;28;20517;-51
2022/07/23 04:20:44;;;;;;;4.10;2.20;;;12.90;99.90;;;;;;5030351;28;20037;-51
2022/07/23 04:23:10;;;;;;;3.35;2.20;;;12.90;99.90;;;;;;5029986;28;22115;-51
2022/07/23 04:25:35;;;;;;;4.30;2.60;;;13.00;99.90;;;;;;5012336;28;20138;-50
2022/07/23 04:28:01;;;;;;;3.33;2.35;;;12.90;99.90;;;;;;5030307;28;20040;-54
2022/07/23 04:30:27;;;;;;;3.92;2.70;;;13.00;99.90;;;;;;5012638;28;20029;-51
2022/07/23 04:32:53;;;;;;;4.50;3.10;;;13.10;99.90;;;;;;5030362;28;20041;-52
2022/07/23 04:35:18;;;;;;;4.93;3.45;;;13.10;99.90;;;;;;5030255;28;20485;-51
2022/07/23 04:37:44;;;;;;;4.75;3.30;;;13.30;99.90;;;;;;5029985;28;20033;-49
2022/07/23 04:40:11;;;;;;;5.93;3.30;;;13.30;99.90;;;;;;5030308;28;20037;-55
2022/07/23 04:42:37;;;;;;;6.53;3.35;;;13.30;99.90;;;;;;5029779;28;20095;-51
2022/07/23 04:45:03;;;;;;;5.13;3.60;;;13.40;99.90;;;;;;5029920;28;20452;-50
2022/07/23 04:47:30;;;;;;;6.03;3.30;;;13.50;99.90;;;;;;5030024;28;20496;-53
2022/07/23 04:49:56;;;;;;;5.20;3.70;;;13.40;99.90;;;;;;5030019;28;20111;-48
2022/07/23 04:52:21;;;;;;;5.95;3.38;;;13.40;99.90;;;;;;5029780;28;20473;-52
2022/07/23 04:54:47;;;;;;;5.32;3.03;;;13.50;99.90;;;;;;5029498;28;20120;-53
2022/07/23 04:57:13;;;;;;;3.95;2.53;;;13.60;99.90;;;;;;5030007;28;20060;-49
2022/07/23 04:59:38;;;;;;;4.25;2.45;;;13.50;99.90;;;;;;5029678;28;20057;-51
2022/07/23 05:02:04;;;;;;;5.97;3.10;;;13.50;99.90;;;;;;5029399;28;20052;-52
2022/07/23 05:04:31;;;;;;;5.00;3.65;;;13.50;99.90;;;;;;5029718;28;20037;-53
2022/07/23 05:06:57;;;;;;;5.13;3.70;;;13.50;99.90;;;;;;5029737;28;20091;-48
2022/07/23 05:09:23;;;;;;;6.25;3.75;;;13.40;99.90;;;;;;5029971;28;20037;-50
2022/07/23 05:11:48;;;;;;;5.47;3.50;;;13.60;99.90;;;;;;5029835;28;20091;-53
2022/07/23 05:14:14;;;;;;;7.43;3.75;;;13.60;99.90;;;;;;5029688;28;20132;-50
2022/07/23 05:16:40;;;;;;;6.35;3.75;;;13.70;99.90;;;;;;5029716;28;20128;-50
2022/07/23 05:19:06;;;;;;;6.00;4.00;;;13.80;99.90;;;;;;5029715;28;20128;-50
2022/07/23 05:21:32;;;;;;;5.03;3.80;;;13.80;99.90;;;;;;5029437;28;20495;-50
2022/07/23 05:23:57;;;;;;;5.30;3.90;;;13.80;99.90;;;;;;5029422;28;20041;-50
2022/07/23 05:26:24;;;;;;;8.18;4.60;;;13.90;99.90;;;;;;5029506;28;20033;-51
2022/07/23 05:28:50;;;;;;;7.25;4.28;;;14.00;99.90;;;;;;5029491;28;20048;-52
2022/07/23 05:31:16;;;;;;;7.20;4.85;;;14.10;99.90;;;;;;5029450;28;20037;-50
2022/07/23 05:33:41;;;;;;;8.02;4.90;;;14.20;99.90;;;;;;5028321;28;20037;-53
2022/07/23 05:36:07;;;;;;;9.02;5.28;;;14.20;99.90;;;;;;5029462;28;20144;-51
2022/07/23 05:38:33;;;;;;;9.70;5.38;;;14.30;99.90;;;;;;5029735;28;20104;-52
2022/07/23 05:40:59;;;;;;;7.63;5.47;;;14.40;99.90;;;;;;5029345;28;20404;-50
2022/07/23 05:43:25;;;;;;;7.38;5.13;;;14.40;99.90;;;;;;5029785;28;20038;-51
2022/07/23 05:45:51;;;;;;;6.80;4.93;;;14.50;99.90;;;;;;5029492;28;20037;-51
2022/07/23 05:48:17;;;;;;;8.00;4.97;;;14.50;99.90;;;;;;5029296;28;20026;-50
2022/07/23 05:50:42;;;;;;;6.90;4.68;;;14.70;99.90;;;;;;5029278;28;20033;-52
2022/07/23 05:53:08;;;;;;;6.40;4.60;;;14.70;99.90;;;;;;5029369;28;20037;-54
2022/07/23 05:55:34;;;;;;;7.18;4.65;;;14.70;99.90;;;;;;5028902;28;20033;-48
2022/07/23 05:57:59;;;;;;;6.95;4.70;;;14.80;99.90;;;;;;5032134;28;20033;-51
2022/07/23 06:00:25;;;;;;;7.47;4.72;;;14.80;99.90;;;;;;5033119;28;20037;-50
2022/07/23 06:02:52;;;;;;;7.97;4.68;;;15.00;99.90;;;;;;5032583;28;20033;-50
2022/07/23 06:05:18;;;;;;;6.43;3.90;;;14.90;99.90;;;;;;5032805;28;20037;-48
2022/07/23 06:07:43;;;;;;;7.93;3.60;;;15.00;99.90;;;;;;5032942;28;20512;-51
2022/07/23 06:10:09;;;;;;;6.43;3.55;;;15.10;99.90;;;;;;5032907;28;20034;-52
2022/07/23 06:12:35;;;;;;;6.05;3.50;;;15.20;99.90;;;;;;5032773;28;20128;-48
2022/07/23 06:15:01;;;;;;;6.85;3.83;;;15.30;99.90;;;;;;5032600;28;20124;-48
2022/07/23 06:17:27;;;;;;;6.95;3.53;;;15.30;99.90;;;;;;5032746;28;20456;-54
2022/07/23 06:19:53;;;;;;;6.95;3.53;;;15.30;99.90;;;;;;5014433;28;20056;-52
2022/07/23 06:22:19;;;;;;;6.75;3.30;;;15.40;99.90;;;;;;5032963;28;20358;-52
2022/07/23 06:24:45;;;;;;;7.68;3.40;;;15.40;99.90;;;;;;5032221;28;20051;-54
2022/07/23 06:27:11;;;;;;;6.50;3.00;;;15.40;99.90;;;;;;5032535;28;20037;-51
2022/07/23 06:29:36;;;;;;;7.75;2.95;;;15.50;99.90;;;;;;5032534;28;20092;-51
2022/07/23 06:32:02;;;;;;;5.40;2.60;;;15.60;99.90;;;;;;4998340;28;20064;-49
2022/07/23 06:34:28;;;;;;;7.20;2.85;;;15.60;99.90;;;;;;5032121;28;20044;-50
2022/07/23 06:36:54;;;;;;;6.22;2.58;;;15.70;99.90;;;;;;5032371;28;20049;-53
2022/07/23 06:39:19;;;;;;;5.22;2.08;;;15.80;99.90;;;;;;5031120;28;20033;-51
2022/07/23 06:41:45;;;;;;;7.05;2.30;;;15.80;99.90;;;;;;5032321;28;20045;-50
2022/07/23 06:44:11;;;;;;;4.43;2.20;;;15.90;99.90;;;;;;5032266;28;20099;-52
2022/07/23 06:46:36;;;;;;;4.00;1.90;;;16.00;99.90;;;;;;5032169;28;20091;-50
2022/07/23 06:49:03;;;;;;;3.80;1.65;;;16.00;99.90;;;;;;5031855;28;20033;-50
2022/07/23 06:51:29;;;;;;;4.97;1.50;;;16.10;99.90;;;;;;5014453;28;20102;-51
2022/07/23 06:53:55;;;;;;;5.07;1.67;;;16.10;99.90;;;;;;5032140;28;20041;-51
2022/07/23 06:56:21;;;;;;;2.53;1.38;;;16.10;99.90;;;;;;5031683;28;20044;-51
2022/07/23 06:58:46;;;;;;;3.83;1.45;;;16.30;99.90;;;;;;5031892;28;20060;-53
2022/07/23 07:01:12;;;;;;;2.85;1.38;;;16.40;99.90;;;;;;5013769;28;20041;-54
2022/07/23 07:03:38;;;;;;;3.05;1.20;;;16.50;99.90;;;;;;5031716;28;20033;-49
2022/07/23 07:06:03;;;;;;;4.22;1.55;;;16.50;99.90;;;;;;5031947;28;20044;-52
2022/07/23 07:08:29;;;;;;;3.10;1.10;;;16.70;99.90;;;;;;5031795;28;20049;-51
2022/07/23 07:10:55;;;;;;;5.20;1.30;;;16.70;99.90;;;;;;5031513;28;20037;-54
2022/07/23 07:13:20;;;;;;;4.40;1.08;;;16.80;99.90;;;;;;5031890;28;20990;-51
2022/07/23 07:15:46;;;;;;;3.50;1.20;;;17.00;99.90;;;;;;5031470;28;20051;-53
2022/07/23 07:18:12;;;;;;;2.13;1.10;;;17.00;99.90;;;;;;5031655;28;20041;-52
2022/07/23 07:20:37;;;;;;;3.95;1.40;;;17.00;99.90;;;;;;5030953;28;20045;-48
2022/07/23 07:23:03;;;;;;;5.28;1.45;;;17.10;99.90;;;;;;5031271;28;20076;-54
2022/07/23 07:25:29;;;;;;;3.30;1.25;;;17.20;99.90;;;;;;5031004;28;20112;-47
2022/07/23 07:27:54;;;;;;;3.08;1.50;;;17.20;99.90;;;;;;5031505;28;20037;-54
2022/07/23 07:30:20;;;;;;;4.20;1.15;;;17.20;99.90;;;;;;5030026;28;20039;-51
2022/07/23 07:32:45;;;;;;;7.22;1.33;;;17.20;99.90;;;;;;5031293;28;20088;-51
2022/07/23 07:35:11;;;;;;;3.17;1.10;;;17.50;99.90;;;;;;5030972;28;20049;-52
2022/07/23 07:37:37;;;;;;;2.05;0.90;;;17.50;99.90;;;;;;5031056;28;20068;-50
2022/07/23 07:40:03;;;;;;;4.18;1.63;;;17.60;99.90;;;;;;5031236;28;20037;-51
2022/07/23 07:42:29;;;;;;;2.42;1.10;;;17.60;99.90;;;;;;5031181;28;20081;-52
2022/07/23 07:44:55;;;;;;;4.47;1.50;;;17.50;99.90;;;;;;5030833;28;20046;-51
2022/07/23 07:47:20;;;;;;;4.35;1.50;;;17.70;99.90;;;;;;5031067;28;20527;-55
2022/07/23 07:49:46;;;;;;;3.58;1.33;;;17.80;99.90;;;;;;5030671;28;20432;-53
2022/07/23 07:52:12;;;;;;;3.70;1.25;;;17.90;99.90;;;;;;5031100;28;20085;-51
2022/07/23 07:54:37;;;;;;;4.25;1.27;;;17.90;99.90;;;;;;5029153;28;20417;-48
2022/07/23 07:57:03;;;;;;;2.97;1.15;;;17.80;99.90;;;;;;5030773;28;20473;-52
2022/07/23 07:59:29;;;;;;;2.60;1.00;;;17.70;99.90;;;;;;5030570;28;20053;-50
2022/07/23 08:01:54;;;;;;;3.05;1.00;;;17.80;99.90;;;;;;5030746;28;20086;-47
2022/07/23 08:04:20;;;;;;;2.92;1.40;;;17.70;99.90;;;;;;5029174;28;20029;-51
2022/07/23 08:06:47;;;;;;;3.55;1.27;;;17.60;99.90;;;;;;5030594;28;20077;-49
2022/07/23 08:09:13;;;;;;;2.53;1.25;;;17.70;99.90;;;;;;5030640;28;20131;-50
2022/07/23 08:11:38;;;;;;;5.22;1.10;;;17.60;99.90;;;;;;5030728;28;20038;-52
2022/07/23 08:14:04;;;;;;;1.60;0.88;;;17.70;99.90;;;;;;5030730;28;20182;-47
2022/07/23 08:16:29;;;;;;;2.90;1.00;;;17.70;99.90;;;;;;5030430;28;20053;-53
2022/07/23 08:18:55;;;;;;;4.07;1.17;;;18.00;99.90;;;;;;5030041;28;20037;-49
2022/07/23 08:21:21;;;;;;;4.93;0.93;;;18.10;99.90;;;;;;5012119;28;20068;-47
2022/07/23 08:23:47;;;;;;;2.30;0.90;;;18.00;99.90;;;;;;5030252;28;20038;-50
2022/07/23 08:26:12;;;;;;;4.85;1.33;;;17.90;99.90;;;;;;5029935;28;20077;-50
2022/07/23 08:28:38;;;;;;;3.65;0.90;;;17.90;99.90;;;;;;5029106;28;20124;-51
2022/07/23 08:31:05;;;;;;;2.25;0.70;;;17.80;99.90;;;;;;5029984;28;20084;-53
2022/07/23 08:33:31;;;;;;;1.88;1.00;;;18.10;99.90;;;;;;5029899;28;20045;-50
2022/07/23 08:35:57;;;;;;;5.45;1.27;;;18.10;99.90;;;;;;5028736;28;20415;-50
2022/07/23 08:38:23;;;;;;;4.43;0.90;;;18.20;99.90;;;;;;5030331;28;20433;-51
2022/07/23 08:40:52;;;;;;;3.85;1.00;;;18.00;99.90;;;;;;5030073;28;20073;-49
2022/07/23 08:43:23;;;;;;;2.88;0.85;;;17.90;99.90;;;;;;5029957;28;20041;-51
2022/07/23 08:45:51;;;;;;;1.67;0.60;;;17.90;99.90;;;;;;5029915;28;20034;-51
2022/07/23 08:48:20;;;;;;;1.90;0.70;;;18.00;99.90;;;;;;5029949;28;20481;-47
2022/07/23 08:50:50;;;;;;;1.58;0.70;;;18.30;99.90;;;;;;5029972;28;20069;-48
2022/07/23 08:53:17;;;;;;;2.72;0.60;;;18.50;99.90;;;;;;5028932;28;20083;-51
2022/07/23 08:55:53;;;;;;;2.08;0.90;;;18.70;99.90;;;;;;5029890;28;20037;-51
2022/07/23 08:58:19;;;;;;;1.52;0.70;;;18.90;99.90;;;;;;5029829;28;20045;-50
2022/07/23 09:00:46;;;;;;;2.13;0.73;;;18.70;99.90;;;;;;5029784;28;20060;-49
2022/07/23 09:03:20;;;;;;;1.42;0.52;;;18.50;99.90;;;;;;5029445;28;20079;-52
2022/07/23 09:05:46;;;;;;;;;;;18.40;99.90;;;;;;5030315;28;20037;-48
2022/07/23 09:08:17;;;;;;;1.58;0.60;;;18.20;99.90;;;;;;5029864;28;19917;-49
2022/07/23 09:10:53;;;;;;;2.78;0.65;;;18.30;99.90;;;;;;5029906;28;20049;-51
2022/07/23 09:13:27;;;;;;;1.70;0.68;;;18.70;99.90;;;;;;5030002;28;21323;-54
2022/07/23 09:15:54;;;;;;;1.60;0.70;;;19.00;99.90;;;;;;5029669;28;20119;-49
2022/07/23 09:18:32;;;;;;;1.20;0.63;;;19.30;99.90;;;;;;5029846;28;20477;-49
2022/07/23 09:21:18;;;;;;;2.22;0.80;;;19.60;99.90;;;;;;5029771;28;20037;-50
2022/07/23 09:23:47;;;;;;;1.90;0.70;;;19.90;99.90;;;;;;5029888;28;20394;-53
2022/07/23 09:26:29;;;;;;;4.95;0.80;;;20.00;99.90;;;;;;5029328;28;20146;-51
2022/07/23 09:29:01;;;;;;;2.25;0.55;;;19.50;99.90;;;;;;5029691;28;20060;-52
2022/07/23 09:31:33;;;;;;;1.58;0.68;;;19.30;99.90;;;;;;5029820;28;20030;-49
2022/07/23 09:34:11;;;;;;;2.15;0.80;;;19.50;99.90;;;;;;5033142;28;20481;-51
2022/07/23 09:36:37;;;;;;;1.70;0.60;;;19.90;99.90;;;;;;5033507;28;20040;-51
2022/07/23 09:39:03;;;;;;;2.53;0.70;;;20.20;99.90;;;;;;5033410;28;20120;-54
2022/07/23 09:41:40;;;;;;;1.10;0.60;;;20.50;99.90;;;;;;5032192;28;20034;-48
2022/07/23 09:44:16;;;;;;;2.33;0.73;;;20.50;99.90;;;;;;5032853;28;20041;-50
2022/07/23 09:46:43;;;;;;;1.17;0.60;;;20.30;99.90;;;;;;5032798;28;20091;-52
2022/07/23 09:49:20;;;;;;;2.38;0.80;;;20.10;99.90;;;;;;5015638;28;20036;-50
2022/07/23 09:51:56;;;;;;;1.30;0.52;;;19.90;99.90;;;;;;5033309;28;20047;-49
2022/07/23 09:54:26;;;;;;;1.48;0.68;;;20.00;99.90;;;;;;5033236;28;20026;-52
2022/07/23 09:56:53;;;;;;;1.73;0.77;;;20.20;99.90;;;;;;5032804;28;20092;-51
2022/07/23 09:59:23;;;;;;;1.15;0.55;;;20.40;99.90;;;;;;5033013;28;20085;-54
2022/07/23 10:01:50;;;;;;;2.17;0.80;;;20.30;99.90;;;;;;5033144;28;20042;-50
2022/07/23 10:04:16;;;;;;;1.40;0.60;;;20.50;99.90;;;;;;5032871;28;20056;-49
2022/07/23 10:06:45;;;;;;;2.22;0.95;;;20.60;99.90;;;;;;5032976;28;20040;-50
2022/07/23 10:09:14;;;;;;;2.47;0.90;;;20.90;99.90;;;;;;5032641;28;20034;-50
2022/07/23 10:11:39;;;;;;;2.03;0.70;;;21.00;99.90;;;;;;5032531;28;20037;-50
2022/07/23 10:14:06;;;;;;;2.13;0.90;;;20.70;99.90;;;;;;5032806;28;20512;-52
2022/07/23 10:16:31;;;;;;;1.85;0.80;;;21.00;99.90;;;;;;5032449;28;20057;-48
2022/07/23 10:18:57;;;;;;;1.20;0.57;;;21.20;99.90;;;;;;5032477;28;20755;-51
2022/07/23 10:21:47;;;;;;;1.27;0.63;;;21.00;99.90;;;;;;5032446;28;20041;-51
2022/07/23 10:24:37;;;;;;;1.98;0.70;;;21.30;99.90;;;;;;5032280;28;20052;-51
2022/07/23 10:27:20;;;;;;;2.63;0.70;;;21.00;99.90;;;;;;5032164;28;20477;-50
2022/07/23 10:29:49;;;;;;;2.03;0.80;;;20.90;99.90;;;;;;5032510;28;20041;-54
2022/07/23 10:32:33;;;;;;;1.38;0.52;;;20.80;99.90;;;;;;5031888;28;20044;-53
2022/07/23 10:35:23;;;;;;;1.67;0.90;;;20.80;99.90;;;;;;5032110;28;20033;-52
2022/07/23 10:37:54;;;;;;;4.18;0.90;;;21.00;99.90;;;;;;5032165;28;20041;-52
2022/07/23 10:40:23;;;;;;;1.80;0.63;;;21.10;99.90;;;;;;5032206;28;20112;-52
2022/07/23 10:42:57;;;;;;;1.67;0.70;;;21.10;99.90;;;;;;5031673;28;20041;-53
2022/07/23 10:45:32;;;;;;;2.05;0.70;;;21.30;99.90;;;;;;5032177;28;20037;-54
2022/07/23 10:48:15;;;;;;;2.05;0.85;;;20.90;99.90;;;;;;5030759;28;20564;-51
2022/07/23 10:50:41;;;;;;;1.70;0.98;;;21.00;99.90;;;;;;5032168;28;20045;-51
2022/07/23 10:53:08;;;;;;;2.33;1.00;;;21.40;99.90;;;;;;5031697;28;20519;-52
2022/07/23 10:55:33;;;;;;;1.90;0.93;;;21.40;99.90;;;;;;5031613;28;20519;-50
2022/07/23 10:58:00;;;;;;;1.60;0.80;;;21.30;99.90;;;;;;5032023;28;20029;-52
2022/07/23 11:00:30;;;;;;;2.67;0.80;;;21.50;99.90;;;;;;5031952;28;20054;-52
2022/07/23 11:02:58;;;;;;;1.80;0.82;;;21.40;99.90;;;;;;5031745;28;20400;-53
2022/07/23 11:05:42;;;;;;;2.47;0.82;;;21.70;99.90;;;;;;5031776;28;20037;-52
2022/07/23 11:08:10;;;;;;;1.90;0.90;;;21.80;99.90;;;;;;5032018;28;20030;-56
2022/07/23 11:10:48;;;;;;;1.02;0.70;;;22.00;99.90;;;;;;5031656;28;20053;-52
2022/07/23 11:13:22;;;;;;;2.08;0.93;;;22.30;99.90;;;;;;5031739;28;20045;-50
2022/07/23 11:16:00;;;;;;;2.58;1.00;;;22.30;99.90;;;;;;5031751;28;20037;-50
2022/07/23 11:18:46;;;;;;;4.32;1.05;;;22.70;99.90;;;;;;5030272;28;20037;-51
2022/07/23 11:21:26;;;;;;;2.28;0.90;;;22.50;99.90;;;;;;5031646;28;20504;-51
2022/07/23 11:24:09;;;;;;;2.30;0.80;;;22.60;99.90;;;;;;5031508;28;20126;-51
2022/07/23 11:26:43;;;;;;;1.80;1.00;;;22.40;99.90;;;;;;5031157;28;20072;-54
2022/07/23 11:29:36;;;;;;;2.20;1.05;;;22.60;99.90;;;;;;5013775;28;20389;-52
2022/07/23 11:32:01;;;;;;;2.20;0.90;;;22.50;99.90;;;;;;5031327;28;20427;-52
2022/07/23 11:34:42;;;;;;;2.58;0.88;;;22.20;99.90;;;;;;5031357;28;20091;-50
2022/07/23 11:37:26;;;;;;;1.67;0.90;;;22.40;99.90;;;;;;5031257;28;20053;-51
2022/07/23 11:39:55;;;;;;;2.85;1.20;;;22.30;99.90;;;;;;5031279;28;20362;-51
2022/07/23 11:42:21;;;;;;;1.98;0.80;;;22.70;99.90;;;;;;5031124;28;20045;-51
2022/07/23 11:44:48;;;;;;;2.58;1.00;;;22.70;99.90;;;;;;5030881;28;20037;-52
2022/07/23 11:47:13;;;;;;;2.45;1.00;;;22.90;99.90;;;;;;5030752;28;20060;-51
2022/07/23 11:49:51;;;;;;;1.63;0.85;;;22.90;99.90;;;;;;5030950;28;20117;-51
2022/07/23 11:52:16;;;;;;;3.60;0.80;;;23.10;99.90;;;;;;5031023;28;20076;-49
2022/07/23 11:54:52;;;;;;;2.72;0.98;;;23.10;99.90;;;;;;5030335;28;20077;-50
2022/07/23 11:57:19;;;;;;;3.30;0.85;;;22.90;99.90;;;;;;5030419;28;20034;-50
2022/07/23 11:59:50;;;;;;;2.33;0.90;;;23.10;99.90;;;;;;5030558;28;20497;-52
2022/07/23 12:02:16;;;;;;;2.15;0.77;;;23.10;99.90;;;;;;5030432;28;20508;-49
2022/07/23 12:04:45;;;;;;;2.03;0.82;;;23.20;99.90;;;;;;5030676;28;20103;-54
2022/07/23 12:07:34;;;;;;;6.75;0.90;;;23.60;99.90;;;;;;5029655;28;20497;-52
2022/07/23 12:10:24;;;;;;;2.08;0.80;;;23.60;99.70;;;;;;5030518;28;20037;-49
2022/07/23 12:12:52;;;;;;;2.05;0.82;;;23.40;98.50;;;;;;5025305;28;20049;-52
2022/07/23 12:15:25;;;;;;;2.40;0.80;;;23.50;99.40;;;;;;5030572;28;20041;-48
2022/07/23 12:17:52;;;;;;;1.30;0.80;;;23.90;99.90;;;;;;5030652;28;20026;-51
2022/07/23 12:20:22;;;;;;;2.00;0.80;;;24.20;99.70;;;;;;5030444;28;20033;-51
2022/07/23 12:22:50;;;;;;;2.75;0.98;;;24.40;99.70;;;;;;5030323;28;20488;-53
2022/07/23 12:25:18;;;;;;;2.40;0.82;;;24.30;98.30;;;;;;5029912;28;20044;-51
2022/07/23 12:27:44;;;;;;;2.00;0.98;;;24.30;98.90;;;;;;5030328;28;20112;-49
2022/07/23 12:30:28;;;;;;;2.35;0.70;;;24.00;98.60;;;;;;5030288;28;20033;-51
2022/07/23 12:32:56;;;;;;;2.15;0.80;;;24.30;97.40;;;;;;5030177;28;20044;-53
2022/07/23 12:35:29;;;;;;;2.15;0.70;;;24.30;99.30;;;;;;5029975;28;20125;-52
2022/07/23 12:38:10;;;;;;;1.75;0.77;;;24.70;98.10;;;;;;5030283;28;20504;-48
2022/07/23 12:40:42;;;;;;;2.65;0.88;;;24.80;98.70;;;;;;5030334;28;20056;-50
2022/07/23 12:43:11;;;;;;;1.85;0.77;;;24.90;98.60;;;;;;5030279;28;20567;-51
2022/07/23 12:45:47;;;;;;;1.98;0.73;;;24.90;97.90;;;;;;5030015;28;20034;-50
2022/07/23 12:48:23;;;;;;;3.03;0.80;;;25.00;97.50;;;;;;5029622;28;20175;-52
2022/07/23 12:50:49;;;;;;;1.70;0.80;;;24.50;97.20;;;;;;5030107;28;20037;-51
2022/07/23 12:53:17;;;;;;;3.67;0.80;;;24.70;99.10;;;;;;5030078;28;20055;-51
2022/07/23 12:55:45;;;;;;;2.08;0.73;;;24.90;97.20;;;;;;5029518;28;20037;-51
2022/07/23 12:58:20;;;;;;;2.17;0.90;;;24.70;97.90;;;;;;5029814;28;20456;-51